Time;durP1;ratioP1;P1;durP2;ratioP2;P2;SDS_P1;SDS_P2;PMS_P1;PMS_P2;Temp;Humidity;BMP_temperature;BMP_pressure;BME280_temperature;BME280_humidity;BME280_pressure;Samples;Min_cycle;Max_cycle;Signal;HPM_P1;HPM_P2
2021/01/04 00:02:17;;;;;;;18.83;10.40;;;18.10;50.60;;;;;;4841178;29;20045;-52
2021/01/04 00:05:06;;;;;;;15.73;9.93;;;18.10;50.50;;;;;;4853949;29;20053;-50
2021/01/04 00:07:51;;;;;;;14.30;9.90;;;18.10;50.50;;;;;;4857958;29;20113;-50
2021/01/04 00:10:29;;;;;;;18.10;10.45;;;18.20;50.60;;;;;;4855991;29;20055;-49
2021/01/04 00:13:01;;;;;;;15.82;9.60;;;18.10;50.50;;;;;;4857790;29;20049;-48
2021/01/04 00:15:34;;;;;;;19.60;9.70;;;18.10;50.30;;;;;;4857987;29;20058;-49
2021/01/04 00:18:20;;;;;;;22.73;9.57;;;18.10;50.30;;;;;;4857362;29;20046;-49
2021/01/04 00:20:54;;;;;;;18.23;9.90;;;18.10;50.20;;;;;;4862205;29;20045;-48
2021/01/04 00:23:31;;;;;;;14.98;9.57;;;18.10;50.20;;;;;;4857911;29;20061;-48
2021/01/04 00:26:03;;;;;;;14.70;8.38;;;18.10;50.20;;;;;;4857640;29;20514;-47
2021/01/04 00:28:35;;;;;;;16.05;9.30;;;18.10;50.10;;;;;;4853932;29;20058;-48
2021/01/04 00:31:05;;;;;;;16.45;9.13;;;18.10;50.10;;;;;;4858452;29;20139;-51
2021/01/04 00:33:36;;;;;;;13.60;9.20;;;18.10;50.00;;;;;;4857603;29;20065;-48
2021/01/04 00:36:06;;;;;;;16.60;9.57;;;18.10;50.00;;;;;;4857562;29;20053;-46
2021/01/04 00:39:06;;;;;;;13.40;9.70;;;18.10;49.90;;;;;;4857662;29;20057;-46
2021/01/04 00:41:44;;;;;;;15.25;8.95;;;18.20;49.90;;;;;;4857509;29;20057;-48
2021/01/04 00:44:18;;;;;;;9.77;7.85;;;18.10;49.80;;;;;;4857633;29;20053;-50
2021/01/04 00:46:52;;;;;;;14.85;9.57;;;18.10;49.90;;;;;;4844307;29;20038;-46
2021/01/04 00:49:27;;;;;;;12.13;8.70;;;18.10;49.90;;;;;;4841213;29;20076;-47
2021/01/04 00:51:59;;;;;;;14.45;7.60;;;18.10;49.80;;;;;;4851117;29;20053;-47
2021/01/04 00:54:43;;;;;;;13.07;8.68;;;18.10;49.80;;;;;;4854331;29;20125;-51
2021/01/04 00:57:38;;;;;;;12.27;7.40;;;18.10;49.80;;;;;;4853463;29;20053;-50
2021/01/04 01:00:15;;;;;;;7.78;6.43;;;18.10;49.80;;;;;;4857163;29;20077;-48
2021/01/04 01:03:08;;;;;;;7.95;6.43;;;18.00;49.70;;;;;;4857301;29;20057;-47
2021/01/04 01:05:44;;;;;;;10.60;7.25;;;18.10;49.80;;;;;;4857389;29;20053;-47
2021/01/04 01:08:22;;;;;;;13.93;8.13;;;18.00;49.80;;;;;;4857409;29;20072;-51
2021/01/04 01:10:54;;;;;;;9.40;6.07;;;18.10;49.80;;;;;;4843460;29;20045;-50
2021/01/04 01:13:54;;;;;;;10.98;7.50;;;18.00;49.90;;;;;;4857421;29;20069;-47
2021/01/04 01:16:58;;;;;;;10.57;6.57;;;18.00;49.90;;;;;;4853070;29;20056;-50
2021/01/04 01:19:29;;;;;;;9.25;7.15;;;18.00;50.00;;;;;;4849934;29;20522;-48
2021/01/04 01:21:57;;;;;;;9.73;6.20;;;18.00;50.20;;;;;;4857234;29;20530;-48
2021/01/04 01:24:24;;;;;;;11.70;7.45;;;18.00;50.10;;;;;;4855993;29;20137;-47
2021/01/04 01:27:27;;;;;;;9.18;6.22;;;18.00;50.10;;;;;;4854749;29;20064;-48
2021/01/04 01:30:23;;;;;;;9.55;6.18;;;18.10;50.20;;;;;;4853479;29;20045;-49
2021/01/04 01:33:09;;;;;;;13.05;7.03;;;18.00;50.20;;;;;;4856265;29;20053;-47
2021/01/04 01:35:53;;;;;;;10.32;6.32;;;18.00;50.30;;;;;;4856670;29;20056;-47
2021/01/04 01:38:43;;;;;;;8.63;5.82;;;18.00;50.30;;;;;;4856547;29;20052;-52
2021/01/04 01:42:00;;;;;;;8.05;5.80;;;18.00;50.50;;;;;;4856528;29;20045;-54
2021/01/04 01:44:31;;;;;;;7.45;6.68;;;18.00;50.30;;;;;;4847871;29;20109;-48
2021/01/04 01:47:03;;;;;;;8.63;7.30;;;17.90;50.30;;;;;;4850464;29;20038;-51
2021/01/04 01:49:45;;;;;;;10.52;5.90;;;17.90;50.30;;;;;;4846633;29;20111;-50
2021/01/04 01:52:34;;;;;;;8.18;5.85;;;18.00;50.30;;;;;;4857092;29;20061;-54
2021/01/04 01:55:22;;;;;;;9.88;5.65;;;18.00;50.50;;;;;;4856634;29;20057;-47
2021/01/04 01:58:33;;;;;;;9.60;5.90;;;18.00;50.40;;;;;;4856509;29;20519;-47
2021/01/04 02:01:07;;;;;;;7.82;6.05;;;18.00;50.40;;;;;;4856367;29;20061;-48
2021/01/04 02:03:42;;;;;;;6.25;5.32;;;17.90;50.40;;;;;;4859934;29;20054;-50
2021/01/04 02:06:32;;;;;;;11.65;6.80;;;17.90;50.40;;;;;;4858171;29;20057;-48
2021/01/04 02:09:04;;;;;;;8.88;5.88;;;18.00;50.30;;;;;;4857837;29;20041;-52
2021/01/04 02:11:40;;;;;;;10.60;6.22;;;17.90;50.30;;;;;;4854210;29;20426;-50
2021/01/04 02:14:13;;;;;;;9.60;5.05;;;18.00;50.30;;;;;;4851596;29;20053;-52
2021/01/04 02:16:53;;;;;;;8.77;4.85;;;18.00;50.30;;;;;;4852530;29;20053;-53
2021/01/04 02:19:36;;;;;;;6.70;5.43;;;18.00;50.40;;;;;;4853003;29;20066;-49
2021/01/04 02:22:44;;;;;;;9.07;5.78;;;18.00;50.40;;;;;;4856784;29;20053;-49
2021/01/04 02:25:12;;;;;;;5.30;4.80;;;17.90;50.20;;;;;;4853032;29;20061;-52
2021/01/04 02:27:43;;;;;;;5.90;4.93;;;17.90;50.30;;;;;;4855702;29;20042;-51
2021/01/04 02:30:11;;;;;;;7.20;5.35;;;17.90;50.30;;;;;;4855436;29;20054;-51
2021/01/04 02:32:37;;;;;;;6.40;4.80;;;17.90;50.20;;;;;;4854710;29;20068;-49
2021/01/04 02:35:05;;;;;;;5.90;4.90;;;17.90;50.20;;;;;;4855419;29;20061;-49
2021/01/04 02:37:32;;;;;;;6.50;5.00;;;17.90;50.20;;;;;;4854963;29;20516;-47
2021/01/04 02:40:00;;;;;;;7.20;5.15;;;17.90;50.10;;;;;;4856226;29;20566;-52
2021/01/04 02:42:30;;;;;;;6.03;5.22;;;17.90;50.10;;;;;;4855426;29;20050;-47
2021/01/04 02:44:59;;;;;;;7.47;5.65;;;18.00;50.20;;;;;;4855040;29;20056;-48
2021/01/04 02:48:04;;;;;;;7.07;5.32;;;18.00;50.20;;;;;;4854885;29;20092;-48
2021/01/04 02:50:44;;;;;;;7.25;5.72;;;18.00;50.10;;;;;;4852398;29;20109;-51
2021/01/04 02:53:43;;;;;;;4.80;4.32;;;17.90;50.10;;;;;;4847449;29;20068;-47
2021/01/04 02:56:19;;;;;;;5.70;5.10;;;18.00;50.10;;;;;;4829420;29;20057;-49
2021/01/04 02:58:58;;;;;;;5.95;4.07;;;17.90;50.10;;;;;;4847156;29;20407;-47
2021/01/04 03:01:29;;;;;;;5.13;4.47;;;17.90;50.10;;;;;;4842275;29;20414;-47
2021/01/04 03:03:56;;;;;;;4.13;3.75;;;17.90;50.20;;;;;;4838469;29;20056;-48
2021/01/04 03:06:29;;;;;;;4.38;3.97;;;17.90;50.10;;;;;;4836526;29;20491;-53
2021/01/04 03:08:56;;;;;;;5.13;4.47;;;17.90;50.10;;;;;;4832385;29;20049;-48
2021/01/04 03:11:27;;;;;;;4.85;4.13;;;17.90;50.10;;;;;;4829835;29;20192;-49
2021/01/04 03:14:01;;;;;;;5.05;4.30;;;17.90;50.10;;;;;;4829781;29;20136;-50
2021/01/04 03:16:41;;;;;;;5.35;4.32;;;17.90;50.10;;;;;;4831466;29;20053;-51
2021/01/04 03:19:11;;;;;;;6.65;4.60;;;18.00;50.20;;;;;;4831722;29;20061;-48
2021/01/04 03:21:39;;;;;;;4.57;3.40;;;17.90;50.10;;;;;;4841525;29;20136;-50
2021/01/04 03:24:08;;;;;;;4.63;3.70;;;17.90;50.10;;;;;;4841033;29;20089;-49
2021/01/04 03:26:42;;;;;;;5.25;3.40;;;17.90;50.20;;;;;;4840979;29;20042;-50
2021/01/04 03:29:10;;;;;;;3.55;2.97;;;17.90;50.20;;;;;;4841362;29;20049;-48
2021/01/04 03:31:36;;;;;;;6.15;3.97;;;17.90;50.30;;;;;;4847926;29;20053;-56
2021/01/04 03:34:03;;;;;;;7.28;4.25;;;17.90;50.40;;;;;;4853665;29;20078;-47
2021/01/04 03:36:30;;;;;;;5.07;4.05;;;17.90;50.30;;;;;;4852493;29;20064;-55
2021/01/04 03:38:56;;;;;;;3.72;3.35;;;17.90;50.40;;;;;;4854211;29;20073;-50
2021/01/04 03:41:23;;;;;;;3.58;3.20;;;17.90;50.40;;;;;;4855250;29;20139;-47
2021/01/04 03:43:49;;;;;;;4.18;3.28;;;17.90;50.70;;;;;;4855408;29;20541;-52
2021/01/04 03:46:17;;;;;;;5.28;3.25;;;17.90;50.60;;;;;;4855369;29;20578;-48
2021/01/04 03:48:43;;;;;;;7.32;4.22;;;17.90;50.50;;;;;;4855870;29;20502;-50
2021/01/04 03:51:10;;;;;;;3.83;2.97;;;17.90;50.40;;;;;;4854975;29;20046;-50
2021/01/04 03:53:37;;;;;;;6.68;3.53;;;17.90;50.40;;;;;;4857677;29;20049;-53
2021/01/04 03:56:04;;;;;;;4.00;3.47;;;17.90;50.30;;;;;;4858406;29;20875;-49
2021/01/04 03:58:30;;;;;;;3.58;3.25;;;17.90;50.30;;;;;;4858629;29;20522;-49
2021/01/04 04:00:57;;;;;;;5.40;3.80;;;17.90;50.30;;;;;;4859472;29;20057;-51
2021/01/04 04:03:24;;;;;;;3.78;3.15;;;17.90;50.30;;;;;;4858391;29;20061;-49
2021/01/04 04:05:51;;;;;;;2.65;2.45;;;17.90;50.20;;;;;;4857909;29;20041;-50
2021/01/04 04:08:17;;;;;;;5.03;3.67;;;17.90;50.30;;;;;;4858332;29;20148;-48
2021/01/04 04:10:44;;;;;;;4.75;3.72;;;17.90;50.30;;;;;;4858518;29;20061;-50
2021/01/04 04:13:10;;;;;;;5.00;3.97;;;17.90;50.20;;;;;;4858521;29;20135;-48
2021/01/04 04:15:37;;;;;;;6.53;3.88;;;17.90;50.20;;;;;;4857629;29;20103;-52
2021/01/04 04:18:03;;;;;;;5.57;3.22;;;17.90;50.20;;;;;;4857825;29;20056;-47
2021/01/04 04:20:31;;;;;;;3.15;2.80;;;17.90;50.30;;;;;;4857751;29;20073;-50
2021/01/04 04:22:57;;;;;;;2.88;2.58;;;17.90;50.30;;;;;;4858125;29;20053;-49
2021/01/04 04:25:25;;;;;;;2.92;2.75;;;17.90;50.20;;;;;;4858292;29;20592;-49
2021/01/04 04:27:52;;;;;;;4.38;4.00;;;17.90;50.20;;;;;;4858737;29;20148;-48
2021/01/04 04:30:21;;;;;;;3.80;3.40;;;17.90;50.10;;;;;;4857951;29;20133;-49
2021/01/04 04:32:48;;;;;;;6.32;2.17;;;17.90;50.10;;;;;;4857329;29;20052;-47
2021/01/04 04:35:14;;;;;;;3.15;2.95;;;17.90;50.20;;;;;;4857761;29;20053;-47
2021/01/04 04:37:43;;;;;;;3.85;2.85;;;17.90;50.20;;;;;;4843370;29;20102;-47
2021/01/04 04:40:15;;;;;;;6.00;3.45;;;17.90;50.20;;;;;;4855297;29;20053;-57
2021/01/04 04:42:42;;;;;;;3.03;2.78;;;17.90;50.20;;;;;;4858609;29;20049;-50
2021/01/04 04:45:14;;;;;;;2.97;2.65;;;17.90;50.20;;;;;;4857538;29;20182;-48
2021/01/04 04:48:31;;;;;;;3.20;2.78;;;17.90;50.20;;;;;;4856939;29;20054;-47
2021/01/04 04:51:24;;;;;;;5.22;2.65;;;17.90;50.20;;;;;;4857495;29;20642;-47
2021/01/04 04:54:25;;;;;;;3.28;3.00;;;17.90;50.30;;;;;;4857535;29;20053;-47
2021/01/04 04:57:08;;;;;;;4.20;2.30;;;17.90;50.30;;;;;;4838693;29;20050;-48
2021/01/04 04:59:50;;;;;;;4.43;2.42;;;17.90;50.20;;;;;;4857359;29;20513;-48
2021/01/04 05:02:24;;;;;;;4.22;2.63;;;17.90;50.30;;;;;;4840143;29;20045;-49
2021/01/04 05:05:23;;;;;;;4.75;3.47;;;17.90;50.30;;;;;;4857232;29;20053;-48
2021/01/04 05:07:57;;;;;;;3.33;2.95;;;17.90;50.20;;;;;;4838833;29;20049;-51
2021/01/04 05:10:27;;;;;;;4.00;3.08;;;17.90;50.30;;;;;;4857511;29;20839;-47
2021/01/04 05:13:01;;;;;;;7.60;3.47;;;17.90;50.10;;;;;;4858504;29;20056;-53
2021/01/04 05:16:02;;;;;;;4.88;3.25;;;17.90;50.20;;;;;;4840363;29;20060;-50
2021/01/04 05:18:51;;;;;;;2.70;2.22;;;17.90;50.10;;;;;;4798584;29;20543;-50
2021/01/04 05:21:43;;;;;;;3.38;2.90;;;17.90;50.10;;;;;;4799766;29;20062;-49
2021/01/04 05:24:37;;;;;;;4.25;2.75;;;17.90;50.00;;;;;;4799845;29;20563;-51
2021/01/04 05:27:32;;;;;;;4.00;2.50;;;17.90;50.10;;;;;;4799369;29;20054;-48
2021/01/04 05:30:24;;;;;;;4.97;2.92;;;17.90;50.20;;;;;;4797190;29;20454;-50
2021/01/04 05:33:10;;;;;;;3.67;3.05;;;17.90;50.10;;;;;;4790627;29;20136;-48
2021/01/04 05:35:38;;;;;;;3.60;3.28;;;17.80;50.00;;;;;;4790956;29;20051;-48
2021/01/04 05:38:13;;;;;;;2.92;2.70;;;17.80;50.10;;;;;;4792841;29;20561;-49
2021/01/04 05:41:15;;;;;;;4.83;3.13;;;17.80;50.20;;;;;;4793314;29;20066;-53
2021/01/04 05:43:54;;;;;;;3.88;3.05;;;17.90;50.20;;;;;;4792249;29;20328;-47
2021/01/04 05:46:26;;;;;;;3.13;2.80;;;17.80;50.30;;;;;;4791850;29;20083;-47
2021/01/04 05:49:07;;;;;;;3.47;2.60;;;17.80;50.40;;;;;;4811562;29;20450;-48
2021/01/04 05:51:37;;;;;;;3.20;2.80;;;17.90;50.30;;;;;;4850989;29;20046;-50
2021/01/04 05:54:04;;;;;;;3.88;2.63;;;17.80;50.30;;;;;;4850920;29;20105;-50
2021/01/04 05:56:32;;;;;;;5.80;3.25;;;17.80;50.30;;;;;;4849762;29;20042;-50
2021/01/04 05:59:12;;;;;;;3.83;2.90;;;17.90;50.30;;;;;;4850439;29;20093;-49
2021/01/04 06:01:41;;;;;;;2.80;2.60;;;17.90;50.30;;;;;;4849689;29;20152;-51
2021/01/04 06:04:10;;;;;;;4.25;3.00;;;17.90;50.30;;;;;;4851045;29;20050;-50
2021/01/04 06:06:46;;;;;;;2.58;2.28;;;17.90;50.20;;;;;;4850823;29;20094;-50
2021/01/04 06:09:15;;;;;;;5.03;3.22;;;17.90;50.20;;;;;;4849724;29;20050;-49
2021/01/04 06:11:54;;;;;;;3.28;2.53;;;17.90;50.20;;;;;;4851702;29;20055;-49
2021/01/04 06:14:23;;;;;;;3.42;2.95;;;17.90;50.10;;;;;;4850916;29;20065;-46
2021/01/04 06:16:58;;;;;;;3.03;2.72;;;17.90;50.10;;;;;;4849648;29;20411;-51
2021/01/04 06:19:26;;;;;;;2.83;2.20;;;17.90;50.30;;;;;;4849399;29;20132;-47
2021/01/04 06:21:54;;;;;;;3.05;2.30;;;17.90;50.20;;;;;;4848803;29;20053;-50
2021/01/04 06:24:25;;;;;;;4.50;2.97;;;17.90;50.20;;;;;;4851873;29;20081;-50
2021/01/04 06:26:54;;;;;;;4.10;2.38;;;17.90;50.20;;;;;;4850890;29;20060;-53
2021/01/04 06:29:34;;;;;;;3.50;3.05;;;17.90;50.20;;;;;;4848298;29;20124;-51
2021/01/04 06:32:03;;;;;;;3.65;2.85;;;17.90;50.10;;;;;;4848135;29;20060;-49
2021/01/04 06:34:33;;;;;;;3.10;2.38;;;17.90;50.30;;;;;;4852630;29;20152;-49
2021/01/04 06:37:02;;;;;;;4.88;3.47;;;17.80;50.20;;;;;;4849777;29;20697;-53
2021/01/04 06:39:31;;;;;;;3.95;2.85;;;17.90;50.30;;;;;;4854144;29;20084;-48
2021/01/04 06:42:14;;;;;;;3.92;3.10;;;17.90;50.20;;;;;;4853437;29;20083;-50
2021/01/04 06:44:46;;;;;;;2.75;2.47;;;17.90;50.30;;;;;;4855222;29;20411;-53
2021/01/04 06:47:29;;;;;;;4.38;3.17;;;17.90;50.30;;;;;;4854704;29;20050;-51
2021/01/04 06:50:06;;;;;;;2.83;2.63;;;17.90;50.20;;;;;;4855520;29;20107;-47
2021/01/04 06:53:12;;;;;;;2.63;2.42;;;17.90;50.30;;;;;;4855645;29;20136;-48
2021/01/04 06:56:01;;;;;;;13.40;2.65;;;17.90;50.20;;;;;;4855607;29;20384;-51
2021/01/04 06:58:50;;;;;;;4.22;2.97;;;17.90;50.20;;;;;;4756296;30;20048;-51
2021/01/04 07:01:52;;;;;;;2.28;2.08;;;17.90;50.20;;;;;;4760829;30;20059;-51
2021/01/04 07:04:45;;;;;;;3.95;1.85;;;17.90;50.10;;;;;;4760047;30;20060;-51
2021/01/04 07:07:37;;;;;;;4.97;2.35;;;17.80;50.20;;;;;;4753386;30;20064;-50
2021/01/04 07:10:28;;;;;;;3.13;2.75;;;17.80;50.80;;;;;;4762810;30;20070;-49
2021/01/04 07:13:35;;;;;;;7.88;2.90;;;17.80;50.20;;;;;;4746847;30;20482;-55
2021/01/04 07:16:31;;;;;;;2.50;2.30;;;17.80;50.20;;;;;;4706999;30;20069;-47
2021/01/04 07:19:05;;;;;;;2.50;1.77;;;17.80;50.20;;;;;;4708988;30;20138;-52
2021/01/04 07:21:45;;;;;;;2.35;2.15;;;17.80;50.50;;;;;;4709429;30;20083;-46
2021/01/04 07:24:31;;;;;;;2.20;1.85;;;17.80;50.50;;;;;;4706961;30;20275;-48
2021/01/04 07:27:02;;;;;;;;;;;17.80;50.60;;;;;;4708966;30;20061;-51
2021/01/04 07:29:47;;;;;;;2.20;1.50;;;17.80;50.50;;;;;;4712648;30;19933;-49
2021/01/04 07:32:19;;;;;;;4.47;1.30;;;17.80;50.70;;;;;;4708027;30;20053;-52
2021/01/04 07:34:53;;;;;;;2.28;2.15;;;17.80;50.70;;;;;;4723515;29;20043;-50
2021/01/04 07:37:35;;;;;;;3.30;2.08;;;17.80;50.70;;;;;;4798363;29;20494;-54
2021/01/04 07:40:23;;;;;;;1.52;1.42;;;17.80;50.70;;;;;;4802363;29;20220;-49
2021/01/04 07:43:20;;;;;;;1.88;1.60;;;17.80;50.60;;;;;;4798062;29;20440;-51
2021/01/04 07:46:18;;;;;;;4.80;3.03;;;17.80;50.80;;;;;;4804775;29;20043;-50
2021/01/04 07:49:13;;;;;;;9.05;3.42;;;17.80;50.90;;;;;;4855947;29;20084;-54
2021/01/04 07:51:57;;;;;;;10.82;3.30;;;17.80;51.20;;;;;;4855949;29;20121;-48
2021/01/04 07:55:05;;;;;;;17.30;2.35;;;17.90;51.20;;;;;;4855988;29;20045;-48
2021/01/04 07:58:20;;;;;;;6.43;2.15;;;17.90;51.50;;;;;;4854603;29;20068;-51
2021/01/04 08:01:29;;;;;;;5.70;2.38;;;17.90;51.30;;;;;;4778603;30;20719;-53
2021/01/04 08:04:19;;;;;;;2.25;1.38;;;17.90;51.30;;;;;;4777271;30;20059;-56
2021/01/04 08:07:04;;;;;;;5.15;3.13;;;17.90;51.30;;;;;;4779476;30;20067;-52
2021/01/04 08:09:49;;;;;;;9.73;2.83;;;17.90;51.30;;;;;;4779666;30;20058;-48
2021/01/04 08:12:48;;;;;;;8.43;2.38;;;18.00;51.40;;;;;;4779267;30;20060;-50
2021/01/04 08:15:33;;;;;;;3.60;2.17;;;18.00;51.40;;;;;;4781336;30;20055;-50
2021/01/04 08:18:05;;;;;;;5.95;1.73;;;18.00;51.30;;;;;;4766664;30;20047;-48
2021/01/04 08:20:32;;;;;;;2.28;2.05;;;18.00;51.30;;;;;;4782241;30;20051;-47
2021/01/04 08:23:48;;;;;;;2.72;2.05;;;18.00;51.30;;;;;;4782515;30;20517;-48
2021/01/04 08:26:34;;;;;;;1.83;1.73;;;18.00;51.30;;;;;;4721994;30;20056;-47
2021/01/04 08:29:07;;;;;;;4.22;2.55;;;18.00;51.30;;;;;;4720657;30;20823;-48
2021/01/04 08:31:47;;;;;;;2.85;1.60;;;18.00;51.40;;;;;;4727458;30;20443;-54
2021/01/04 08:34:19;;;;;;;2.67;2.47;;;18.00;51.30;;;;;;4748165;29;20058;-53
2021/01/04 08:36:50;;;;;;;6.18;2.28;;;18.10;51.40;;;;;;4786048;29;20160;-47
2021/01/04 08:39:34;;;;;;;3.75;1.80;;;18.00;51.30;;;;;;4772486;30;20055;-46
2021/01/04 08:42:22;;;;;;;5.93;2.45;;;18.10;51.40;;;;;;4777182;30;20056;-47
2021/01/04 08:44:55;;;;;;;2.15;1.08;;;18.10;51.50;;;;;;4777365;30;20063;-49
2021/01/04 08:47:30;;;;;;;4.03;0.60;;;18.10;52.20;;;;;;4776121;29;20059;-58
2021/01/04 08:50:08;;;;;;;4.38;1.33;;;18.10;52.60;;;;;;4770364;29;20066;-55
2021/01/04 08:52:42;;;;;;;3.05;2.20;;;18.10;52.30;;;;;;4780276;30;20521;-50
2021/01/04 08:55:11;;;;;;;4.15;1.38;;;18.10;52.20;;;;;;4771073;30;20070;-52
2021/01/04 08:57:42;;;;;;;4.30;1.63;;;18.10;52.40;;;;;;4832352;29;20065;-48
2021/01/04 09:00:21;;;;;;;2.13;1.73;;;18.10;52.10;;;;;;4855284;29;20049;-50
2021/01/04 09:02:48;;;;;;;1.40;1.35;;;18.10;52.10;;;;;;4856495;29;20620;-54
2021/01/04 09:05:31;;;;;;;4.38;1.50;;;18.20;52.20;;;;;;4856627;29;20060;-52
2021/01/04 09:07:59;;;;;;;2.90;1.92;;;18.10;52.20;;;;;;4844063;29;20065;-52
2021/01/04 09:10:37;;;;;;;1.27;1.08;;;18.10;52.20;;;;;;4852126;29;20045;-54
2021/01/04 09:13:10;;;;;;;2.15;1.40;;;18.20;52.60;;;;;;4855578;29;20056;-49
2021/01/04 09:15:40;;;;;;;1.65;1.50;;;18.20;52.60;;;;;;4855899;29;20049;-49
2021/01/04 09:18:33;;;;;;;3.30;1.60;;;18.20;52.60;;;;;;4838848;29;20136;-51
2021/01/04 09:21:03;;;;;;;5.72;1.42;;;18.20;52.70;;;;;;4848756;29;20049;-50
2021/01/04 09:23:34;;;;;;;1.75;1.48;;;18.20;52.80;;;;;;4856619;29;20456;-47
2021/01/04 09:26:12;;;;;;;2.50;2.28;;;18.20;52.90;;;;;;4849641;29;20769;-48
2021/01/04 09:28:42;;;;;;;1.52;1.42;;;18.20;53.10;;;;;;4851211;29;20141;-46
2021/01/04 09:31:12;;;;;;;3.00;1.45;;;18.20;53.10;;;;;;4848399;29;20063;-64
2021/01/04 09:33:47;;;;;;;2.05;1.95;;;18.20;53.00;;;;;;4846886;29;20479;-46
2021/01/04 09:36:16;;;;;;;1.70;1.20;;;18.20;53.10;;;;;;4846260;29;20057;-48
2021/01/04 09:38:43;;;;;;;4.43;1.17;;;18.20;53.00;;;;;;4843196;29;20049;-48
2021/01/04 09:41:12;;;;;;;1.40;1.30;;;18.20;53.00;;;;;;4842396;29;20133;-46
2021/01/04 09:43:41;;;;;;;3.70;1.75;;;18.20;53.10;;;;;;4842567;29;20499;-47
2021/01/04 09:46:16;;;;;;;6.60;1.25;;;18.20;53.10;;;;;;4843284;29;20042;-50
2021/01/04 09:48:49;;;;;;;3.47;1.45;;;18.30;53.20;;;;;;4841819;29;20057;-46
2021/01/04 09:51:23;;;;;;;6.07;1.25;;;18.30;53.20;;;;;;4840774;29;20046;-47
2021/01/04 09:53:57;;;;;;;1.75;1.48;;;18.30;53.20;;;;;;4841265;29;20045;-49
2021/01/04 09:56:31;;;;;;;3.35;1.63;;;18.30;53.20;;;;;;4844029;29;20055;-50
2021/01/04 09:59:06;;;;;;;1.60;1.50;;;18.30;53.20;;;;;;4846777;29;20050;-51
2021/01/04 10:01:43;;;;;;;3.03;1.85;;;18.30;53.20;;;;;;4853318;29;20122;-46
2021/01/04 10:04:10;;;;;;;1.27;1.17;;;18.30;53.70;;;;;;4857325;29;20061;-48
2021/01/04 10:06:38;;;;;;;3.03;1.50;;;18.30;53.00;;;;;;4855170;29;20518;-48
2021/01/04 10:09:13;;;;;;;3.38;0.75;;;18.30;53.00;;;;;;4856319;29;20449;-54
2021/01/04 10:11:40;;;;;;;6.53;1.33;;;18.30;53.50;;;;;;4856136;29;20065;-56
2021/01/04 10:14:11;;;;;;;3.88;1.33;;;18.30;53.30;;;;;;4850491;29;20128;-50
2021/01/04 10:16:40;;;;;;;2.67;0.93;;;18.30;53.20;;;;;;4855292;29;20053;-51
2021/01/04 10:19:12;;;;;;;4.25;2.20;;;18.30;53.10;;;;;;4833035;29;20118;-49
2021/01/04 10:21:51;;;;;;;1.10;0.65;;;18.30;53.20;;;;;;4855286;29;20053;-49
2021/01/04 10:24:22;;;;;;;3.30;0.75;;;18.30;53.60;;;;;;4852927;29;20080;-46
2021/01/04 10:26:51;;;;;;;1.25;1.10;;;18.30;53.70;;;;;;4852641;29;20148;-47
2021/01/04 10:29:21;;;;;;;2.90;1.55;;;18.30;53.80;;;;;;4855529;29;20057;-46
2021/01/04 10:31:51;;;;;;;2.92;1.08;;;18.30;53.90;;;;;;4853984;29;20687;-47
2021/01/04 10:34:19;;;;;;;0.90;0.80;;;18.30;53.70;;;;;;4848585;29;20053;-55
2021/01/04 10:36:59;;;;;;;2.70;1.55;;;18.30;53.60;;;;;;4855145;29;20464;-51
2021/01/04 10:39:32;;;;;;;1.45;1.08;;;18.30;53.70;;;;;;4853799;29;20061;-53
2021/01/04 10:42:10;;;;;;;2.92;0.82;;;18.30;53.70;;;;;;4855076;29;20133;-50
2021/01/04 10:44:38;;;;;;;2.20;2.00;;;18.30;53.70;;;;;;4853879;29;20053;-52
2021/01/04 10:47:15;;;;;;;1.23;0.85;;;18.30;53.50;;;;;;4843132;29;20049;-47
2021/01/04 10:49:43;;;;;;;1.55;0.90;;;18.40;53.60;;;;;;4849565;29;20053;-49
2021/01/04 10:52:19;;;;;;;4.80;2.17;;;18.30;53.50;;;;;;4852642;29;20046;-45
2021/01/04 10:54:46;;;;;;;3.75;2.15;;;18.40;53.70;;;;;;4837346;29;20089;-49
2021/01/04 10:57:21;;;;;;;3.05;1.52;;;18.40;53.60;;;;;;4851149;29;20061;-48
2021/01/04 10:59:58;;;;;;;2.13;1.92;;;18.40;53.70;;;;;;4828629;29;20140;-47
2021/01/04 11:02:25;;;;;;;2.83;1.88;;;18.40;53.80;;;;;;4851741;29;20136;-55
2021/01/04 11:04:54;;;;;;;1.48;1.23;;;18.40;54.30;;;;;;4856013;29;20046;-58
2021/01/04 11:07:29;;;;;;;3.47;1.42;;;18.40;53.60;;;;;;4857946;29;20054;-50
2021/01/04 11:09:56;;;;;;;4.88;1.77;;;18.40;53.50;;;;;;4850011;29;20057;-53
2021/01/04 11:12:26;;;;;;;2.95;2.20;;;18.40;53.40;;;;;;4850679;29;20061;-48
2021/01/04 11:14:55;;;;;;;4.63;1.95;;;18.40;53.20;;;;;;4858503;29;20049;-50
2021/01/04 11:17:25;;;;;;;4.63;1.73;;;18.40;53.10;;;;;;4858674;29;20057;-49
2021/01/04 11:19:52;;;;;;;1.85;1.40;;;18.50;53.00;;;;;;4858382;29;20049;-47
2021/01/04 11:22:25;;;;;;;2.25;1.52;;;18.40;52.80;;;;;;4858778;29;20124;-53
2021/01/04 11:24:52;;;;;;;3.25;1.30;;;18.50;52.80;;;;;;4857587;29;20578;-47
2021/01/04 11:27:20;;;;;;;4.07;2.22;;;18.50;52.70;;;;;;4866161;29;20720;-49
2021/01/04 11:29:49;;;;;;;2.10;1.63;;;18.50;52.50;;;;;;4865067;29;20140;-49
2021/01/04 11:32:17;;;;;;;4.15;2.00;;;18.50;52.40;;;;;;4854167;29;20075;-49
2021/01/04 11:34:46;;;;;;;2.10;1.75;;;18.50;52.30;;;;;;4843683;29;20522;-48
2021/01/04 11:37:15;;;;;;;3.13;1.92;;;18.50;52.10;;;;;;4856330;29;20101;-47
2021/01/04 11:39:42;;;;;;;3.35;2.40;;;18.50;51.90;;;;;;4858787;29;20324;-50
2021/01/04 11:42:09;;;;;;;3.47;1.77;;;18.50;51.70;;;;;;4857251;29;20519;-50
2021/01/04 11:44:36;;;;;;;5.70;1.95;;;18.50;51.60;;;;;;4858127;29;20046;-47
2021/01/04 11:47:05;;;;;;;4.38;2.67;;;18.50;51.40;;;;;;4846845;29;20506;-47
2021/01/04 11:49:33;;;;;;;2.97;1.48;;;18.50;51.40;;;;;;4861503;29;20072;-51
2021/01/04 11:52:00;;;;;;;2.85;1.98;;;18.50;51.20;;;;;;4857845;29;20145;-50
2021/01/04 11:54:26;;;;;;;2.80;2.05;;;18.50;51.10;;;;;;4857553;29;20049;-49
2021/01/04 11:56:53;;;;;;;2.70;1.95;;;18.50;51.00;;;;;;4855586;29;20073;-49
2021/01/04 11:59:20;;;;;;;5.15;1.75;;;18.50;50.80;;;;;;4853184;29;20050;-52
2021/01/04 12:01:46;;;;;;;3.00;1.52;;;18.50;50.70;;;;;;4858130;29;20514;-47
2021/01/04 12:04:14;;;;;;;1.92;1.83;;;18.50;50.60;;;;;;4849069;29;20054;-49
2021/01/04 12:06:46;;;;;;;3.80;2.53;;;18.50;50.40;;;;;;4858615;29;20426;-51
2021/01/04 12:09:12;;;;;;;3.63;2.85;;;18.50;50.30;;;;;;4858019;29;20113;-52
2021/01/04 12:11:40;;;;;;;3.05;1.58;;;18.50;50.20;;;;;;4858303;29;20136;-53
2021/01/04 12:14:08;;;;;;;1.63;1.52;;;18.50;50.20;;;;;;4857551;29;20069;-49
2021/01/04 12:16:36;;;;;;;2.38;1.70;;;18.50;50.20;;;;;;4858127;29;20050;-49
2021/01/04 12:19:04;;;;;;;2.58;1.80;;;18.50;50.10;;;;;;4858989;29;20069;-51
2021/01/04 12:21:32;;;;;;;1.20;0.90;;;18.50;50.10;;;;;;4858338;29;20065;-50
2021/01/04 12:23:58;;;;;;;2.38;1.40;;;18.50;50.20;;;;;;4858197;29;20053;-49
2021/01/04 12:26:25;;;;;;;0.88;0.88;;;18.50;50.20;;;;;;4858152;29;20129;-50
2021/01/04 12:28:52;;;;;;;2.00;1.58;;;18.50;50.10;;;;;;4858349;29;20065;-52
2021/01/04 12:31:19;;;;;;;1.80;1.65;;;18.50;50.00;;;;;;4858345;29;20050;-50
2021/01/04 12:33:46;;;;;;;3.17;1.67;;;18.50;50.10;;;;;;4857738;29;20057;-52
2021/01/04 12:36:17;;;;;;;1.20;1.10;;;18.50;50.10;;;;;;4857922;29;20602;-50
2021/01/04 12:38:45;;;;;;;1.40;1.15;;;18.50;50.00;;;;;;4858029;29;20050;-50
2021/01/04 12:41:11;;;;;;;1.23;1.08;;;18.50;50.00;;;;;;4858145;29;20152;-52
2021/01/04 12:43:38;;;;;;;1.77;1.30;;;18.50;50.00;;;;;;4857893;29;20132;-52
2021/01/04 12:46:06;;;;;;;2.05;1.42;;;18.50;50.00;;;;;;4842187;29;20140;-49
2021/01/04 12:48:33;;;;;;;2.20;1.15;;;18.50;49.90;;;;;;4857720;29;20438;-50
2021/01/04 12:51:00;;;;;;;2.08;1.38;;;18.50;49.90;;;;;;4857763;29;20084;-51
2021/01/04 12:53:27;;;;;;;4.40;1.08;;;18.50;49.80;;;;;;4857866;29;20097;-54
2021/01/04 12:55:54;;;;;;;1.08;1.00;;;18.50;49.80;;;;;;4857615;29;20053;-47
2021/01/04 12:58:21;;;;;;;1.48;1.42;;;18.50;49.70;;;;;;4857929;29;20053;-48
2021/01/04 13:00:50;;;;;;;1.88;0.70;;;18.50;49.60;;;;;;4841885;29;20124;-50
2021/01/04 13:03:17;;;;;;;0.95;0.95;;;18.50;49.50;;;;;;4857343;29;20065;-54
2021/01/04 13:05:43;;;;;;;1.85;1.75;;;18.50;49.40;;;;;;4857379;29;20531;-48
2021/01/04 13:08:10;;;;;;;1.75;1.63;;;18.50;49.40;;;;;;4857588;29;20041;-52
2021/01/04 13:10:37;;;;;;;1.67;0.88;;;18.50;49.30;;;;;;4857484;29;20659;-53
2021/01/04 13:13:04;;;;;;;3.47;1.23;;;18.50;49.30;;;;;;4858526;29;20430;-47
2021/01/04 13:15:31;;;;;;;1.17;1.08;;;18.50;49.30;;;;;;4840488;29;20042;-47
2021/01/04 13:17:58;;;;;;;2.72;1.00;;;18.50;49.30;;;;;;4857302;29;20407;-48
2021/01/04 13:20:24;;;;;;;3.25;1.05;;;18.50;49.30;;;;;;4857352;29;20057;-47
2021/01/04 13:22:51;;;;;;;1.95;1.27;;;18.50;49.20;;;;;;4857407;29;20072;-49
2021/01/04 13:25:17;;;;;;;2.78;1.13;;;18.50;49.10;;;;;;4857538;29;20088;-51
2021/01/04 13:27:44;;;;;;;4.65;1.27;;;18.50;49.10;;;;;;4857946;29;20050;-47
2021/01/04 13:30:12;;;;;;;0.57;0.52;;;18.50;49.00;;;;;;4856813;29;20053;-53